sensor_id;sensor_type;location;lat;lon;timestamp;pressure;altitude;pressure_sealevel;temperature;humidity
68077;BME280;54866;53.458;14.540;2023-06-19T00:01:18;100542.02;;;17.00;74.60
68077;BME280;54866;53.458;14.540;2023-06-19T00:03:47;100537.86;;;16.97;74.54
68077;BME280;54866;53.458;14.540;2023-06-19T00:06:15;100539.92;;;16.96;74.93
68077;BME280;54866;53.458;14.540;2023-06-19T00:08:43;100538.26;;;16.93;74.88
68077;BME280;54866;53.458;14.540;2023-06-19T00:11:12;100534.19;;;16.90;75.39
68077;BME280;54866;53.458;14.540;2023-06-19T00:13:40;100538.76;;;16.87;75.64
68077;BME280;54866;53.458;14.540;2023-06-19T00:16:08;100538.61;;;16.83;76.03
68077;BME280;54866;53.458;14.540;2023-06-19T00:18:35;100539.02;;;16.81;76.67
68077;BME280;54866;53.458;14.540;2023-06-19T00:21:06;100532.69;;;16.79;77.32
68077;BME280;54866;53.458;14.540;2023-06-19T00:23:34;100530.52;;;16.76;77.49
68077;BME280;54866;53.458;14.540;2023-06-19T00:26:03;100532.28;;;16.73;77.69
68077;BME280;54866;53.458;14.540;2023-06-19T00:28:33;100527.45;;;16.68;78.17
68077;BME280;54866;53.458;14.540;2023-06-19T00:31:01;100535.20;;;16.64;78.48
68077;BME280;54866;53.458;14.540;2023-06-19T00:33:29;100538.41;;;16.60;79.09
68077;BME280;54866;53.458;14.540;2023-06-19T00:35:57;100533.73;;;16.57;79.25
68077;BME280;54866;53.458;14.540;2023-06-19T00:38:25;100534.20;;;16.54;79.40
68077;BME280;54866;53.458;14.540;2023-06-19T00:40:53;100537.70;;;16.51;79.43
68077;BME280;54866;53.458;14.540;2023-06-19T00:43:21;100539.56;;;16.49;79.67
68077;BME280;54866;53.458;14.540;2023-06-19T00:45:49;100541.37;;;16.47;79.98
68077;BME280;54866;53.458;14.540;2023-06-19T00:48:17;100545.54;;;16.45;80.47
68077;BME280;54866;53.458;14.540;2023-06-19T00:50:45;100542.53;;;16.41;80.42
68077;BME280;54866;53.458;14.540;2023-06-19T00:53:13;100539.82;;;16.38;80.48
68077;BME280;54866;53.458;14.540;2023-06-19T00:55:42;100538.27;;;16.35;80.60
68077;BME280;54866;53.458;14.540;2023-06-19T00:58:10;100538.70;;;16.32;80.79
68077;BME280;54866;53.458;14.540;2023-06-19T01:00:39;100541.13;;;16.29;80.97
68077;BME280;54866;53.458;14.540;2023-06-19T01:03:07;100540.97;;;16.27;81.05
68077;BME280;54866;53.458;14.540;2023-06-19T01:05:35;100538.63;;;16.26;81.16
68077;BME280;54866;53.458;14.540;2023-06-19T01:08:04;100541.91;;;16.25;81.39
68077;BME280;54866;53.458;14.540;2023-06-19T01:10:36;100536.05;;;16.23;81.46
68077;BME280;54866;53.458;14.540;2023-06-19T01:13:07;100533.29;;;16.23;81.58
68077;BME280;54866;53.458;14.540;2023-06-19T01:15:35;100531.58;;;16.22;81.63
68077;BME280;54866;53.458;14.540;2023-06-19T01:18:05;100530.71;;;16.22;81.84
68077;BME280;54866;53.458;14.540;2023-06-19T01:20:33;100531.69;;;16.21;81.86
68077;BME280;54866;53.458;14.540;2023-06-19T01:23:06;100533.85;;;16.21;82.09
68077;BME280;54866;53.458;14.540;2023-06-19T01:25:35;100535.67;;;16.20;82.18
68077;BME280;54866;53.458;14.540;2023-06-19T01:28:03;100535.68;;;16.20;82.26
68077;BME280;54866;53.458;14.540;2023-06-19T01:30:32;100535.64;;;16.20;82.12
68077;BME280;54866;53.458;14.540;2023-06-19T01:33:03;100542.48;;;16.20;82.17
68077;BME280;54866;53.458;14.540;2023-06-19T01:35:33;100543.38;;;16.20;82.39
68077;BME280;54866;53.458;14.540;2023-06-19T01:38:02;100539.50;;;16.18;82.42
68077;BME280;54866;53.458;14.540;2023-06-19T01:40:32;100539.05;;;16.19;82.59
68077;BME280;54866;53.458;14.540;2023-06-19T01:43:01;100540.58;;;16.19;82.50
68077;BME280;54866;53.458;14.540;2023-06-19T01:45:31;100541.52;;;16.19;82.77
68077;BME280;54866;53.458;14.540;2023-06-19T01:47:59;100538.41;;;16.18;82.55
68077;BME280;54866;53.458;14.540;2023-06-19T01:50:27;100538.40;;;16.16;82.57
68077;BME280;54866;53.458;14.540;2023-06-19T01:52:55;100538.50;;;16.15;82.64
68077;BME280;54866;53.458;14.540;2023-06-19T01:55:26;100542.05;;;16.14;82.76
68077;BME280;54866;53.458;14.540;2023-06-19T01:57:54;100545.61;;;16.12;82.79
68077;BME280;54866;53.458;14.540;2023-06-19T02:00:22;100541.58;;;16.10;83.00
68077;BME280;54866;53.458;14.540;2023-06-19T02:02:51;100544.98;;;16.08;83.28
68077;BME280;54866;53.458;14.540;2023-06-19T02:05:19;100541.89;;;16.05;83.24
68077;BME280;54866;53.458;14.540;2023-06-19T02:07:47;100531.27;;;16.03;83.21
68077;BME280;54866;53.458;14.540;2023-06-19T02:10:15;100530.85;;;16.00;83.36
68077;BME280;54866;53.458;14.540;2023-06-19T02:12:43;100525.30;;;15.97;83.44
68077;BME280;54866;53.458;14.540;2023-06-19T02:15:11;100521.94;;;15.95;83.57
68077;BME280;54866;53.458;14.540;2023-06-19T02:17:39;100522.27;;;15.92;83.65
68077;BME280;54866;53.458;14.540;2023-06-19T02:20:10;100523.83;;;15.89;83.73
68077;BME280;54866;53.458;14.540;2023-06-19T02:22:39;100524.67;;;15.86;83.90
68077;BME280;54866;53.458;14.540;2023-06-19T02:25:08;100521.70;;;15.84;84.08
68077;BME280;54866;53.458;14.540;2023-06-19T02:27:36;100521.16;;;15.82;84.20
68077;BME280;54866;53.458;14.540;2023-06-19T02:30:05;100522.41;;;15.80;84.46
68077;BME280;54866;53.458;14.540;2023-06-19T02:32:33;100516.45;;;15.80;84.58
68077;BME280;54866;53.458;14.540;2023-06-19T02:35:02;100517.00;;;15.79;84.57
68077;BME280;54866;53.458;14.540;2023-06-19T02:37:31;100512.91;;;15.80;84.70
68077;BME280;54866;53.458;14.540;2023-06-19T02:39:59;100511.83;;;15.80;85.03
68077;BME280;54866;53.458;14.540;2023-06-19T02:42:49;100509.63;;;15.80;84.90
68077;BME280;54866;53.458;14.540;2023-06-19T02:45:17;100510.27;;;15.81;84.73
68077;BME280;54866;53.458;14.540;2023-06-19T02:47:45;100510.02;;;15.82;84.68
68077;BME280;54866;53.458;14.540;2023-06-19T02:50:13;100511.77;;;15.82;84.48
68077;BME280;54866;53.458;14.540;2023-06-19T02:52:41;100513.77;;;15.83;84.50
68077;BME280;54866;53.458;14.540;2023-06-19T02:55:09;100509.27;;;15.84;84.45
68077;BME280;54866;53.458;14.540;2023-06-19T02:57:37;100502.55;;;15.85;84.24
68077;BME280;54866;53.458;14.540;2023-06-19T03:00:06;100501.83;;;15.87;84.25
68077;BME280;54866;53.458;14.540;2023-06-19T03:02:36;100499.50;;;15.89;84.24
68077;BME280;54866;53.458;14.540;2023-06-19T03:05:10;100494.21;;;15.92;84.11
68077;BME280;54866;53.458;14.540;2023-06-19T03:07:38;100491.26;;;15.94;84.10
68077;BME280;54866;53.458;14.540;2023-06-19T03:10:07;100488.86;;;15.97;84.01
68077;BME280;54866;53.458;14.540;2023-06-19T03:12:35;100486.81;;;16.00;83.94
68077;BME280;54866;53.458;14.540;2023-06-19T03:15:04;100488.81;;;16.03;83.87
68077;BME280;54866;53.458;14.540;2023-06-19T03:17:33;100488.38;;;16.05;83.76
68077;BME280;54866;53.458;14.540;2023-06-19T03:20:01;100489.09;;;16.08;83.62
68077;BME280;54866;53.458;14.540;2023-06-19T03:22:29;100486.30;;;16.10;83.61
68077;BME280;54866;53.458;14.540;2023-06-19T03:24:57;100490.61;;;16.13;83.56
68077;BME280;54866;53.458;14.540;2023-06-19T03:27:26;100492.07;;;16.16;83.44
68077;BME280;54866;53.458;14.540;2023-06-19T03:29:55;100493.14;;;16.19;83.31
68077;BME280;54866;53.458;14.540;2023-06-19T03:32:24;100491.65;;;16.23;83.12
68077;BME280;54866;53.458;14.540;2023-06-19T03:34:53;100494.39;;;16.27;82.89
68077;BME280;54866;53.458;14.540;2023-06-19T03:37:21;100495.95;;;16.31;82.81
68077;BME280;54866;53.458;14.540;2023-06-19T03:39:49;100493.84;;;16.35;82.74
68077;BME280;54866;53.458;14.540;2023-06-19T03:42:17;100488.52;;;16.39;82.50
68077;BME280;54866;53.458;14.540;2023-06-19T03:44:45;100487.02;;;16.45;82.35
68077;BME280;54866;53.458;14.540;2023-06-19T03:47:13;100488.94;;;16.48;82.21
68077;BME280;54866;53.458;14.540;2023-06-19T03:49:42;100492.72;;;16.55;81.96
68077;BME280;54866;53.458;14.540;2023-06-19T03:52:10;100490.69;;;16.60;81.70
68077;BME280;54866;53.458;14.540;2023-06-19T03:54:38;100494.66;;;16.67;81.50
68077;BME280;54866;53.458;14.540;2023-06-19T03:57:07;100495.02;;;16.74;81.24
68077;BME280;54866;53.458;14.540;2023-06-19T03:59:36;100496.37;;;16.81;80.84
68077;BME280;54866;53.458;14.540;2023-06-19T04:02:04;100493.55;;;16.87;80.66
68077;BME280;54866;53.458;14.540;2023-06-19T04:04:33;100495.02;;;16.92;80.39
68077;BME280;54866;53.458;14.540;2023-06-19T04:07:01;100497.17;;;16.96;80.44
68077;BME280;54866;53.458;14.540;2023-06-19T04:09:29;100501.06;;;17.06;80.24
68077;BME280;54866;53.458;14.540;2023-06-19T04:11:58;100502.73;;;17.15;80.04
68077;BME280;54866;53.458;14.540;2023-06-19T04:14:26;100502.70;;;17.24;79.84
68077;BME280;54866;53.458;14.540;2023-06-19T04:16:54;100505.09;;;17.30;79.20
68077;BME280;54866;53.458;14.540;2023-06-19T04:19:23;100507.73;;;17.36;79.20
68077;BME280;54866;53.458;14.540;2023-06-19T04:21:51;100506.69;;;17.44;78.79
68077;BME280;54866;53.458;14.540;2023-06-19T04:24:21;100507.05;;;17.53;78.42
68077;BME280;54866;53.458;14.540;2023-06-19T04:26:49;100505.64;;;17.59;78.13
68077;BME280;54866;53.458;14.540;2023-06-19T04:29:17;100508.91;;;17.69;77.89
68077;BME280;54866;53.458;14.540;2023-06-19T04:31:45;100511.23;;;17.81;77.48
68077;BME280;54866;53.458;14.540;2023-06-19T04:34:15;100506.44;;;17.90;77.11
68077;BME280;54866;53.458;14.540;2023-06-19T04:36:44;100507.09;;;18.02;76.52
68077;BME280;54866;53.458;14.540;2023-06-19T04:39:12;100503.96;;;18.10;76.19
68077;BME280;54866;53.458;14.540;2023-06-19T04:41:40;100506.98;;;18.18;76.10
68077;BME280;54866;53.458;14.540;2023-06-19T04:44:10;100510.86;;;18.30;76.09
68077;BME280;54866;53.458;14.540;2023-06-19T04:46:40;100511.09;;;18.40;75.47
68077;BME280;54866;53.458;14.540;2023-06-19T04:49:08;100515.89;;;18.48;75.18
68077;BME280;54866;53.458;14.540;2023-06-19T04:51:37;100517.87;;;18.60;75.08
68077;BME280;54866;53.458;14.540;2023-06-19T04:54:05;100517.92;;;18.74;74.50
68077;BME280;54866;53.458;14.540;2023-06-19T04:56:33;100518.29;;;18.88;73.97
68077;BME280;54866;53.458;14.540;2023-06-19T04:59:01;100515.48;;;19.01;73.86
68077;BME280;54866;53.458;14.540;2023-06-19T05:01:29;100520.65;;;19.21;73.40
68077;BME280;54866;53.458;14.540;2023-06-19T05:03:57;100518.19;;;19.39;72.96
68077;BME280;54866;53.458;14.540;2023-06-19T05:06:26;100524.05;;;19.57;72.45
68077;BME280;54866;53.458;14.540;2023-06-19T05:08:54;100525.17;;;19.69;71.62
68077;BME280;54866;53.458;14.540;2023-06-19T05:11:22;100525.52;;;19.75;71.46
68077;BME280;54866;53.458;14.540;2023-06-19T05:13:50;100529.73;;;19.89;71.34
68077;BME280;54866;53.458;14.540;2023-06-19T05:16:18;100529.86;;;20.04;70.81
68077;BME280;54866;53.458;14.540;2023-06-19T05:18:46;100535.44;;;20.15;69.94
68077;BME280;54866;53.458;14.540;2023-06-19T05:21:15;100536.95;;;20.28;69.51
68077;BME280;54866;53.458;14.540;2023-06-19T05:23:43;100533.63;;;20.41;68.96
68077;BME280;54866;53.458;14.540;2023-06-19T05:26:13;100534.83;;;20.53;68.47
68077;BME280;54866;53.458;14.540;2023-06-19T05:28:41;100537.91;;;20.66;68.35
68077;BME280;54866;53.458;14.540;2023-06-19T05:31:09;100543.51;;;20.75;67.64
68077;BME280;54866;53.458;14.540;2023-06-19T05:33:38;100539.83;;;20.79;67.64
68077;BME280;54866;53.458;14.540;2023-06-19T05:36:06;100536.02;;;20.85;67.48
68077;BME280;54866;53.458;14.540;2023-06-19T05:38:35;100536.88;;;20.97;67.24
68077;BME280;54866;53.458;14.540;2023-06-19T05:41:03;100530.48;;;21.11;66.70
68077;BME280;54866;53.458;14.540;2023-06-19T05:43:31;100536.48;;;21.22;65.97
68077;BME280;54866;53.458;14.540;2023-06-19T05:46:00;100535.56;;;21.39;65.81
68077;BME280;54866;53.458;14.540;2023-06-19T05:48:29;100535.04;;;21.60;65.27
68077;BME280;54866;53.458;14.540;2023-06-19T05:50:57;100535.53;;;21.83;64.89
68077;BME280;54866;53.458;14.540;2023-06-19T05:53:24;100538.04;;;22.09;63.64
68077;BME280;54866;53.458;14.540;2023-06-19T05:55:53;100537.34;;;22.26;62.87
68077;BME280;54866;53.458;14.540;2023-06-19T05:58:21;100539.45;;;22.63;61.82
68077;BME280;54866;53.458;14.540;2023-06-19T06:00:50;100538.04;;;23.33;60.87
68077;BME280;54866;53.458;14.540;2023-06-19T06:03:24;100541.80;;;23.91;58.39
68077;BME280;54866;53.458;14.540;2023-06-19T06:05:54;100537.66;;;24.36;57.85
68077;BME280;54866;53.458;14.540;2023-06-19T06:08:29;100536.60;;;25.60;55.14
68077;BME280;54866;53.458;14.540;2023-06-19T06:10:57;100525.67;;;27.14;51.23
68077;BME280;54866;53.458;14.540;2023-06-19T06:13:25;100533.52;;;27.62;48.84
68077;BME280;54866;53.458;14.540;2023-06-19T06:15:54;100529.06;;;27.33;48.10
68077;BME280;54866;53.458;14.540;2023-06-19T06:18:22;100529.45;;;26.87;48.48
68077;BME280;54866;53.458;14.540;2023-06-19T06:20:50;100530.88;;;26.35;48.69
68077;BME280;54866;53.458;14.540;2023-06-19T06:23:20;100537.73;;;25.88;49.88
68077;BME280;54866;53.458;14.540;2023-06-19T06:25:49;100534.01;;;25.46;50.59
68077;BME280;54866;53.458;14.540;2023-06-19T06:28:17;100541.27;;;25.10;51.45
68077;BME280;54866;53.458;14.540;2023-06-19T06:30:45;100539.64;;;24.86;52.51
68077;BME280;54866;53.458;14.540;2023-06-19T06:33:13;100543.86;;;24.68;53.19
68077;BME280;54866;53.458;14.540;2023-06-19T06:35:42;100540.98;;;24.61;53.41
68077;BME280;54866;53.458;14.540;2023-06-19T06:38:10;100541.17;;;24.68;53.56
68077;BME280;54866;53.458;14.540;2023-06-19T06:40:38;100542.94;;;24.71;53.24
68077;BME280;54866;53.458;14.540;2023-06-19T06:43:08;100546.98;;;24.70;53.03
68077;BME280;54866;53.458;14.540;2023-06-19T06:45:36;100548.83;;;24.63;52.91
68077;BME280;54866;53.458;14.540;2023-06-19T06:48:06;100550.67;;;24.51;53.07
68077;BME280;54866;53.458;14.540;2023-06-19T06:50:37;100545.95;;;24.36;53.43
68077;BME280;54866;53.458;14.540;2023-06-19T06:53:05;100550.90;;;24.25;53.58
68077;BME280;54866;53.458;14.540;2023-06-19T06:55:34;100548.61;;;24.17;53.91
68077;BME280;54866;53.458;14.540;2023-06-19T06:58:02;100546.71;;;24.11;54.07
68077;BME280;54866;53.458;14.540;2023-06-19T07:00:31;100552.05;;;23.95;54.23
68077;BME280;54866;53.458;14.540;2023-06-19T07:03:00;100554.38;;;23.79;54.54
68077;BME280;54866;53.458;14.540;2023-06-19T07:05:28;100555.56;;;23.75;54.98
68077;BME280;54866;53.458;14.540;2023-06-19T07:07:56;100556.09;;;23.65;55.47
68077;BME280;54866;53.458;14.540;2023-06-19T07:10:25;100559.88;;;23.56;55.62
68077;BME280;54866;53.458;14.540;2023-06-19T07:12:53;100560.90;;;23.55;56.30
68077;BME280;54866;53.458;14.540;2023-06-19T07:15:21;100557.75;;;23.49;56.48
68077;BME280;54866;53.458;14.540;2023-06-19T07:17:49;100565.17;;;23.44;56.80
68077;BME280;54866;53.458;14.540;2023-06-19T07:20:17;100563.43;;;23.31;57.25
68077;BME280;54866;53.458;14.540;2023-06-19T07:22:45;100566.44;;;23.21;57.63
68077;BME280;54866;53.458;14.540;2023-06-19T07:25:14;100566.69;;;23.16;57.50
68077;BME280;54866;53.458;14.540;2023-06-19T07:27:42;100568.27;;;23.11;57.53
68077;BME280;54866;53.458;14.540;2023-06-19T07:30:10;100567.11;;;23.11;57.10
68077;BME280;54866;53.458;14.540;2023-06-19T07:32:39;100569.63;;;23.18;57.04
68077;BME280;54866;53.458;14.540;2023-06-19T07:35:07;100568.73;;;23.29;56.64
68077;BME280;54866;53.458;14.540;2023-06-19T07:37:35;100571.11;;;23.34;56.14
68077;BME280;54866;53.458;14.540;2023-06-19T07:40:05;100574.80;;;23.41;56.50
68077;BME280;54866;53.458;14.540;2023-06-19T07:42:33;100575.02;;;23.53;55.69
68077;BME280;54866;53.458;14.540;2023-06-19T07:45:01;100576.45;;;23.60;55.60
68077;BME280;54866;53.458;14.540;2023-06-19T07:47:29;100580.00;;;23.60;55.26
68077;BME280;54866;53.458;14.540;2023-06-19T07:49:58;100580.21;;;23.63;55.40
68077;BME280;54866;53.458;14.540;2023-06-19T07:52:26;100582.02;;;23.67;54.91
68077;BME280;54866;53.458;14.540;2023-06-19T07:54:54;100579.36;;;23.75;54.51
68077;BME280;54866;53.458;14.540;2023-06-19T07:57:24;100579.45;;;23.80;54.31
68077;BME280;54866;53.458;14.540;2023-06-19T07:59:53;100582.48;;;23.79;54.35
68077;BME280;54866;53.458;14.540;2023-06-19T08:02:21;100584.35;;;23.80;54.35
68077;BME280;54866;53.458;14.540;2023-06-19T08:04:49;100585.02;;;23.84;54.11
68077;BME280;54866;53.458;14.540;2023-06-19T08:07:17;100585.40;;;23.90;54.02
68077;BME280;54866;53.458;14.540;2023-06-19T08:09:45;100582.67;;;23.88;53.55
68077;BME280;54866;53.458;14.540;2023-06-19T08:12:13;100577.70;;;23.82;53.70
68077;BME280;54866;53.458;14.540;2023-06-19T08:14:41;100576.45;;;23.86;54.30
68077;BME280;54866;53.458;14.540;2023-06-19T08:17:10;100575.52;;;23.97;53.37
68077;BME280;54866;53.458;14.540;2023-06-19T08:19:38;100576.12;;;24.07;53.53
68077;BME280;54866;53.458;14.540;2023-06-19T08:22:07;100578.17;;;24.18;53.73
68077;BME280;54866;53.458;14.540;2023-06-19T08:24:35;100582.52;;;24.29;53.42
68077;BME280;54866;53.458;14.540;2023-06-19T08:27:05;100579.89;;;24.40;52.82
68077;BME280;54866;53.458;14.540;2023-06-19T08:29:33;100574.91;;;24.49;52.73
68077;BME280;54866;53.458;14.540;2023-06-19T08:32:02;100580.08;;;24.68;52.92
68077;BME280;54866;53.458;14.540;2023-06-19T08:34:30;100577.47;;;24.84;52.67
68077;BME280;54866;53.458;14.540;2023-06-19T08:36:58;100572.67;;;24.92;52.65
68077;BME280;54866;53.458;14.540;2023-06-19T08:39:26;100567.43;;;24.99;52.59
68077;BME280;54866;53.458;14.540;2023-06-19T08:41:55;100567.59;;;25.07;52.61
68077;BME280;54866;53.458;14.540;2023-06-19T08:44:23;100567.27;;;25.28;52.56
68077;BME280;54866;53.458;14.540;2023-06-19T08:46:50;100566.06;;;25.61;52.36
68077;BME280;54866;53.458;14.540;2023-06-19T08:49:18;100567.79;;;25.85;52.30
68077;BME280;54866;53.458;14.540;2023-06-19T08:51:47;100567.52;;;26.08;51.30
68077;BME280;54866;53.458;14.540;2023-06-19T08:54:15;100567.88;;;26.20;51.32
68077;BME280;54866;53.458;14.540;2023-06-19T08:56:43;100562.98;;;26.43;50.68
68077;BME280;54866;53.458;14.540;2023-06-19T08:59:11;100564.84;;;26.74;49.31
68077;BME280;54866;53.458;14.540;2023-06-19T09:01:40;100561.13;;;27.02;47.92
68077;BME280;54866;53.458;14.540;2023-06-19T09:04:12;100558.69;;;27.29;45.09
68077;BME280;54866;53.458;14.540;2023-06-19T09:06:50;100563.40;;;27.37;44.04
68077;BME280;54866;53.458;14.540;2023-06-19T09:09:19;100565.52;;;27.40;44.02
68077;BME280;54866;53.458;14.540;2023-06-19T09:11:57;100563.81;;;27.58;43.56
68077;BME280;54866;53.458;14.540;2023-06-19T09:14:32;100565.48;;;27.65;43.28
68077;BME280;54866;53.458;14.540;2023-06-19T09:17:01;100563.40;;;27.74;43.28
68077;BME280;54866;53.458;14.540;2023-06-19T09:19:30;100564.00;;;27.83;43.24
68077;BME280;54866;53.458;14.540;2023-06-19T09:22:03;100568.24;;;27.98;42.40
68077;BME280;54866;53.458;14.540;2023-06-19T09:24:35;100564.00;;;27.97;42.23
68077;BME280;54866;53.458;14.540;2023-06-19T09:27:09;100564.56;;;27.98;42.13
68077;BME280;54866;53.458;14.540;2023-06-19T09:29:40;100563.88;;;27.99;41.29
68077;BME280;54866;53.458;14.540;2023-06-19T09:32:15;100564.60;;;28.05;41.69
68077;BME280;54866;53.458;14.540;2023-06-19T09:34:44;100561.34;;;28.14;41.78
68077;BME280;54866;53.458;14.540;2023-06-19T09:37:12;100559.62;;;27.91;41.03
68077;BME280;54866;53.458;14.540;2023-06-19T09:39:40;100565.21;;;27.72;41.64
68077;BME280;54866;53.458;14.540;2023-06-19T09:42:09;100559.79;;;27.68;41.80
68077;BME280;54866;53.458;14.540;2023-06-19T09:44:41;100565.22;;;27.66;42.12
68077;BME280;54866;53.458;14.540;2023-06-19T09:47:12;100563.59;;;27.68;42.23
68077;BME280;54866;53.458;14.540;2023-06-19T09:49:43;100566.90;;;27.77;41.44
68077;BME280;54866;53.458;14.540;2023-06-19T09:52:15;100559.73;;;27.79;41.10
68077;BME280;54866;53.458;14.540;2023-06-19T09:54:44;100565.56;;;27.84;41.56
68077;BME280;54866;53.458;14.540;2023-06-19T09:57:12;100565.92;;;27.89;40.91
68077;BME280;54866;53.458;14.540;2023-06-19T09:59:40;100561.48;;;28.09;41.75
68077;BME280;54866;53.458;14.540;2023-06-19T10:02:09;100562.00;;;28.47;41.31
68077;BME280;54866;53.458;14.540;2023-06-19T10:04:45;100562.93;;;28.77;41.01
68077;BME280;54866;53.458;14.540;2023-06-19T10:07:16;100557.42;;;28.98;40.27
68077;BME280;54866;53.458;14.540;2023-06-19T10:09:57;100563.22;;;28.91;38.79
68077;BME280;54866;53.458;14.540;2023-06-19T10:12:34;100558.16;;;28.61;37.59
68077;BME280;54866;53.458;14.540;2023-06-19T10:15:15;100562.21;;;28.21;38.42
68077;BME280;54866;53.458;14.540;2023-06-19T10:17:43;100571.22;;;27.92;37.93
68077;BME280;54866;53.458;14.540;2023-06-19T10:20:25;100560.62;;;27.80;38.74
68077;BME280;54866;53.458;14.540;2023-06-19T10:22:58;100561.18;;;27.77;39.93
68077;BME280;54866;53.458;14.540;2023-06-19T10:25:29;100558.55;;;27.84;40.56
68077;BME280;54866;53.458;14.540;2023-06-19T10:27:58;100558.02;;;27.83;41.15
68077;BME280;54866;53.458;14.540;2023-06-19T10:30:27;100554.98;;;27.80;41.32
68077;BME280;54866;53.458;14.540;2023-06-19T10:32:56;100553.27;;;27.75;41.17
68077;BME280;54866;53.458;14.540;2023-06-19T10:35:24;100552.20;;;27.71;41.38
68077;BME280;54866;53.458;14.540;2023-06-19T10:37:52;100549.02;;;27.67;40.84
68077;BME280;54866;53.458;14.540;2023-06-19T10:40:21;100552.58;;;27.56;40.53
68077;BME280;54866;53.458;14.540;2023-06-19T10:42:49;100551.33;;;27.38;40.79
68077;BME280;54866;53.458;14.540;2023-06-19T10:45:16;100551.38;;;27.19;41.57
68077;BME280;54866;53.458;14.540;2023-06-19T10:47:45;100549.27;;;26.99;42.43
68077;BME280;54866;53.458;14.540;2023-06-19T10:50:13;100548.40;;;26.81;42.89
68077;BME280;54866;53.458;14.540;2023-06-19T10:52:42;100554.04;;;26.67;43.42
68077;BME280;54866;53.458;14.540;2023-06-19T10:55:12;100550.30;;;26.60;43.96
68077;BME280;54866;53.458;14.540;2023-06-19T10:57:43;100552.81;;;26.49;43.79
68077;BME280;54866;53.458;14.540;2023-06-19T11:00:21;100558.27;;;26.34;43.99
68077;BME280;54866;53.458;14.540;2023-06-19T11:02:50;100554.39;;;26.19;44.90
68077;BME280;54866;53.458;14.540;2023-06-19T11:05:20;100555.00;;;26.09;45.29
68077;BME280;54866;53.458;14.540;2023-06-19T11:07:52;100561.60;;;25.99;45.55
68077;BME280;54866;53.458;14.540;2023-06-19T11:10:20;100556.41;;;25.91;46.22
68077;BME280;54866;53.458;14.540;2023-06-19T11:12:49;100556.14;;;25.78;46.61
68077;BME280;54866;53.458;14.540;2023-06-19T11:15:17;100556.81;;;25.68;46.97
68077;BME280;54866;53.458;14.540;2023-06-19T11:17:45;100558.25;;;25.55;47.14
68077;BME280;54866;53.458;14.540;2023-06-19T11:20:13;100561.70;;;25.51;47.39
68077;BME280;54866;53.458;14.540;2023-06-19T11:22:41;100557.80;;;25.47;47.51
68077;BME280;54866;53.458;14.540;2023-06-19T11:25:11;100553.26;;;25.43;47.60
68077;BME280;54866;53.458;14.540;2023-06-19T11:27:40;100554.23;;;25.40;47.89
68077;BME280;54866;53.458;14.540;2023-06-19T11:30:10;100548.39;;;25.42;48.32
68077;BME280;54866;53.458;14.540;2023-06-19T11:32:38;100548.15;;;25.41;48.01
68077;BME280;54866;53.458;14.540;2023-06-19T11:35:11;100549.02;;;25.46;48.22
68077;BME280;54866;53.458;14.540;2023-06-19T11:37:43;100544.83;;;25.56;47.88
68077;BME280;54866;53.458;14.540;2023-06-19T11:40:12;100547.63;;;25.70;48.12
68077;BME280;54866;53.458;14.540;2023-06-19T11:42:59;100544.77;;;25.83;47.83
68077;BME280;54866;53.458;14.540;2023-06-19T11:45:27;100537.64;;;25.93;47.28
68077;BME280;54866;53.458;14.540;2023-06-19T11:47:55;100536.14;;;26.04;47.26
68077;BME280;54866;53.458;14.540;2023-06-19T11:50:27;100535.30;;;26.18;46.76
68077;BME280;54866;53.458;14.540;2023-06-19T11:52:55;100535.70;;;26.33;46.36
68077;BME280;54866;53.458;14.540;2023-06-19T11:55:26;100531.52;;;26.55;46.08
68077;BME280;54866;53.458;14.540;2023-06-19T11:57:54;100524.95;;;26.72;45.08
68077;BME280;54866;53.458;14.540;2023-06-19T12:00:22;100524.98;;;26.88;45.16
68077;BME280;54866;53.458;14.540;2023-06-19T12:02:50;100522.25;;;26.98;44.75
68077;BME280;54866;53.458;14.540;2023-06-19T12:05:19;100519.85;;;27.14;44.48
68077;BME280;54866;53.458;14.540;2023-06-19T12:07:47;100518.45;;;27.29;43.51
68077;BME280;54866;53.458;14.540;2023-06-19T12:10:16;100517.59;;;27.30;43.02
68077;BME280;54866;53.458;14.540;2023-06-19T12:12:44;100519.11;;;27.27;43.01
68077;BME280;54866;53.458;14.540;2023-06-19T12:15:13;100516.63;;;27.22;43.28
68077;BME280;54866;53.458;14.540;2023-06-19T12:17:41;100516.13;;;27.13;43.58
68077;BME280;54866;53.458;14.540;2023-06-19T12:20:10;100516.55;;;26.97;42.82
68077;BME280;54866;53.458;14.540;2023-06-19T12:22:38;100516.10;;;26.82;42.34
68077;BME280;54866;53.458;14.540;2023-06-19T12:25:06;100513.41;;;26.71;43.19
68077;BME280;54866;53.458;14.540;2023-06-19T12:27:34;100513.20;;;26.65;43.60
68077;BME280;54866;53.458;14.540;2023-06-19T12:30:02;100511.25;;;26.59;43.93
68077;BME280;54866;53.458;14.540;2023-06-19T12:32:31;100504.48;;;26.52;44.14
68077;BME280;54866;53.458;14.540;2023-06-19T12:34:59;100505.38;;;26.42;44.28
68077;BME280;54866;53.458;14.540;2023-06-19T12:37:27;100502.72;;;26.32;44.78
68077;BME280;54866;53.458;14.540;2023-06-19T12:39:55;100499.86;;;26.25;45.23
68077;BME280;54866;53.458;14.540;2023-06-19T12:42:23;100500.33;;;26.28;45.80
68077;BME280;54866;53.458;14.540;2023-06-19T12:44:51;100502.16;;;26.33;45.72
68077;BME280;54866;53.458;14.540;2023-06-19T12:47:20;100504.68;;;26.41;45.55
68077;BME280;54866;53.458;14.540;2023-06-19T12:49:48;100497.15;;;26.55;44.14